sensor_id;sensor_type;location;lat;lon;timestamp;P1;durP1;ratioP1;P2;durP2;ratioP2
69034;SDS011;56091;55.756;37.412;2023-06-22T00:03:32;12.70;;;4.90;;
69034;SDS011;56091;55.756;37.412;2023-06-22T00:08:33;12.35;;;4.80;;
69034;SDS011;56091;55.756;37.412;2023-06-22T00:13:34;10.77;;;4.57;;
69034;SDS011;56091;55.756;37.412;2023-06-22T00:18:35;16.40;;;5.05;;
69034;SDS011;56091;55.756;37.412;2023-06-22T00:23:36;15.47;;;5.20;;
69034;SDS011;56091;55.756;37.412;2023-06-22T00:28:37;14.20;;;5.57;;
69034;SDS011;56091;55.756;37.412;2023-06-22T00:33:37;16.87;;;5.10;;
69034;SDS011;56091;55.756;37.412;2023-06-22T00:38:39;13.02;;;5.18;;
69034;SDS011;56091;55.756;37.412;2023-06-22T00:43:45;11.83;;;5.27;;
69034;SDS011;56091;55.756;37.412;2023-06-22T00:48:46;12.65;;;5.10;;
69034;SDS011;56091;55.756;37.412;2023-06-22T00:53:47;12.80;;;5.23;;
69034;SDS011;56091;55.756;37.412;2023-06-22T00:58:48;12.57;;;5.15;;
69034;SDS011;56091;55.756;37.412;2023-06-22T01:03:53;10.30;;;4.97;;
69034;SDS011;56091;55.756;37.412;2023-06-22T01:09:02;12.38;;;4.90;;
69034;SDS011;56091;55.756;37.412;2023-06-22T01:14:19;10.23;;;5.07;;
69034;SDS011;56091;55.756;37.412;2023-06-22T01:19:44;13.32;;;5.30;;
69034;SDS011;56091;55.756;37.412;2023-06-22T01:30:15;14.70;;;5.50;;
69034;SDS011;56091;55.756;37.412;2023-06-22T01:35:17;18.27;;;5.80;;
69034;SDS011;56091;55.756;37.412;2023-06-22T01:40:22;19.08;;;5.78;;
69034;SDS011;56091;55.756;37.412;2023-06-22T01:45:27;13.60;;;5.20;;
69034;SDS011;56091;55.756;37.412;2023-06-22T01:50:28;13.40;;;5.63;;
69034;SDS011;56091;55.756;37.412;2023-06-22T01:55:30;13.60;;;5.40;;
69034;SDS011;56091;55.756;37.412;2023-06-22T02:00:35;12.15;;;5.10;;
69034;SDS011;56091;55.756;37.412;2023-06-22T02:05:42;9.47;;;4.77;;
69034;SDS011;56091;55.756;37.412;2023-06-22T02:10:51;10.05;;;4.80;;
69034;SDS011;56091;55.756;37.412;2023-06-22T02:15:57;10.37;;;5.07;;
69034;SDS011;56091;55.756;37.412;2023-06-22T02:20:58;15.30;;;5.03;;
69034;SDS011;56091;55.756;37.412;2023-06-22T02:25:59;13.37;;;5.50;;
69034;SDS011;56091;55.756;37.412;2023-06-22T02:31:02;14.25;;;5.60;;
69034;SDS011;56091;55.756;37.412;2023-06-22T02:36:03;15.70;;;6.00;;
69034;SDS011;56091;55.756;37.412;2023-06-22T02:41:05;13.52;;;5.93;;
69034;SDS011;56091;55.756;37.412;2023-06-22T02:46:09;18.47;;;5.93;;
69034;SDS011;56091;55.756;37.412;2023-06-22T02:51:10;16.02;;;6.05;;
69034;SDS011;56091;55.756;37.412;2023-06-22T02:56:12;14.07;;;6.43;;
69034;SDS011;56091;55.756;37.412;2023-06-22T03:01:16;22.58;;;6.28;;
69034;SDS011;56091;55.756;37.412;2023-06-22T03:06:21;18.00;;;6.33;;
69034;SDS011;56091;55.756;37.412;2023-06-22T03:11:29;19.98;;;6.97;;
69034;SDS011;56091;55.756;37.412;2023-06-22T03:16:32;24.20;;;6.73;;
69034;SDS011;56091;55.756;37.412;2023-06-22T03:21:34;20.70;;;6.28;;
69034;SDS011;56091;55.756;37.412;2023-06-22T03:26:35;19.67;;;6.57;;
69034;SDS011;56091;55.756;37.412;2023-06-22T03:31:35;21.47;;;6.47;;
69034;SDS011;56091;55.756;37.412;2023-06-22T03:36:36;14.93;;;5.88;;
69034;SDS011;56091;55.756;37.412;2023-06-22T03:41:37;18.53;;;5.97;;
69034;SDS011;56091;55.756;37.412;2023-06-22T03:46:39;16.77;;;5.45;;
69034;SDS011;56091;55.756;37.412;2023-06-22T03:51:40;14.10;;;4.80;;
69034;SDS011;56091;55.756;37.412;2023-06-22T03:56:40;13.50;;;4.93;;
69034;SDS011;56091;55.756;37.412;2023-06-22T04:01:41;9.07;;;4.13;;
69034;SDS011;56091;55.756;37.412;2023-06-22T04:06:42;10.50;;;4.30;;
69034;SDS011;56091;55.756;37.412;2023-06-22T04:11:43;15.43;;;4.30;;
69034;SDS011;56091;55.756;37.412;2023-06-22T04:16:45;9.48;;;4.22;;
69034;SDS011;56091;55.756;37.412;2023-06-22T04:21:46;8.87;;;4.00;;
69034;SDS011;56091;55.756;37.412;2023-06-22T04:26:48;9.18;;;4.07;;
69034;SDS011;56091;55.756;37.412;2023-06-22T04:31:54;9.10;;;3.67;;
69034;SDS011;56091;55.756;37.412;2023-06-22T04:36:56;9.07;;;3.80;;
69034;SDS011;56091;55.756;37.412;2023-06-22T04:41:58;11.97;;;3.80;;
69034;SDS011;56091;55.756;37.412;2023-06-22T04:47:01;7.55;;;3.90;;
69034;SDS011;56091;55.756;37.412;2023-06-22T04:52:05;9.97;;;3.90;;
69034;SDS011;56091;55.756;37.412;2023-06-22T04:57:07;8.10;;;3.58;;
69034;SDS011;56091;55.756;37.412;2023-06-22T05:02:10;10.40;;;4.03;;
69034;SDS011;56091;55.756;37.412;2023-06-22T05:07:12;9.80;;;4.18;;
69034;SDS011;56091;55.756;37.412;2023-06-22T05:12:13;8.63;;;4.10;;
69034;SDS011;56091;55.756;37.412;2023-06-22T05:17:14;10.40;;;3.33;;
69034;SDS011;56091;55.756;37.412;2023-06-22T05:22:19;8.17;;;3.73;;
69034;SDS011;56091;55.756;37.412;2023-06-22T05:27:20;9.70;;;3.70;;
69034;SDS011;56091;55.756;37.412;2023-06-22T05:32:20;8.00;;;3.65;;
69034;SDS011;56091;55.756;37.412;2023-06-22T05:37:21;9.33;;;4.43;;
69034;SDS011;56091;55.756;37.412;2023-06-22T05:42:22;9.50;;;4.25;;
69034;SDS011;56091;55.756;37.412;2023-06-22T05:47:25;8.30;;;4.60;;
69034;SDS011;56091;55.756;37.412;2023-06-22T05:52:26;9.25;;;4.35;;
69034;SDS011;56091;55.756;37.412;2023-06-22T05:57:27;9.67;;;4.50;;
69034;SDS011;56091;55.756;37.412;2023-06-22T06:02:28;11.00;;;4.47;;
69034;SDS011;56091;55.756;37.412;2023-06-22T06:07:29;12.13;;;4.60;;
69034;SDS011;56091;55.756;37.412;2023-06-22T06:12:30;10.60;;;4.57;;
69034;SDS011;56091;55.756;37.412;2023-06-22T06:17:31;14.10;;;5.63;;
69034;SDS011;56091;55.756;37.412;2023-06-22T06:22:34;8.63;;;4.17;;
69034;SDS011;56091;55.756;37.412;2023-06-22T06:27:35;13.10;;;4.18;;
69034;SDS011;56091;55.756;37.412;2023-06-22T06:32:36;11.00;;;4.40;;
69034;SDS011;56091;55.756;37.412;2023-06-22T06:37:37;10.55;;;4.07;;
69034;SDS011;56091;55.756;37.412;2023-06-22T06:42:40;9.67;;;4.80;;
69034;SDS011;56091;55.756;37.412;2023-06-22T06:47:45;9.00;;;3.90;;
69034;SDS011;56091;55.756;37.412;2023-06-22T06:52:46;9.23;;;4.20;;
69034;SDS011;56091;55.756;37.412;2023-06-22T06:57:47;9.80;;;4.05;;
69034;SDS011;56091;55.756;37.412;2023-06-22T07:02:49;9.80;;;4.00;;
69034;SDS011;56091;55.756;37.412;2023-06-22T07:07:50;10.23;;;4.40;;
69034;SDS011;56091;55.756;37.412;2023-06-22T07:12:50;8.37;;;4.03;;
69034;SDS011;56091;55.756;37.412;2023-06-22T07:17:51;8.05;;;3.90;;
69034;SDS011;56091;55.756;37.412;2023-06-22T07:22:52;9.20;;;4.13;;
69034;SDS011;56091;55.756;37.412;2023-06-22T07:33:05;10.15;;;3.70;;
69034;SDS011;56091;55.756;37.412;2023-06-22T07:38:08;8.53;;;4.00;;
69034;SDS011;56091;55.756;37.412;2023-06-22T07:43:12;9.45;;;3.95;;
69034;SDS011;56091;55.756;37.412;2023-06-22T07:48:12;8.43;;;3.90;;
69034;SDS011;56091;55.756;37.412;2023-06-22T07:53:13;9.57;;;4.10;;
69034;SDS011;56091;55.756;37.412;2023-06-22T07:58:14;12.73;;;4.13;;
69034;SDS011;56091;55.756;37.412;2023-06-22T08:03:16;11.45;;;4.20;;
69034;SDS011;56091;55.756;37.412;2023-06-22T08:08:17;8.57;;;4.07;;
69034;SDS011;56091;55.756;37.412;2023-06-22T08:13:21;10.27;;;4.30;;
69034;SDS011;56091;55.756;37.412;2023-06-22T08:18:24;10.40;;;4.20;;
69034;SDS011;56091;55.756;37.412;2023-06-22T08:23:25;10.82;;;4.10;;
69034;SDS011;56091;55.756;37.412;2023-06-22T08:28:26;8.60;;;3.90;;
69034;SDS011;56091;55.756;37.412;2023-06-22T08:33:27;6.88;;;3.70;;
69034;SDS011;56091;55.756;37.412;2023-06-22T08:38:30;7.30;;;3.83;;
69034;SDS011;56091;55.756;37.412;2023-06-22T08:43:31;10.30;;;4.10;;
69034;SDS011;56091;55.756;37.412;2023-06-22T08:48:32;8.13;;;3.97;;
69034;SDS011;56091;55.756;37.412;2023-06-22T08:53:33;8.17;;;4.10;;
69034;SDS011;56091;55.756;37.412;2023-06-22T08:58:35;11.93;;;4.00;;
69034;SDS011;56091;55.756;37.412;2023-06-22T09:03:36;9.10;;;4.00;;
69034;SDS011;56091;55.756;37.412;2023-06-22T09:08:38;7.18;;;4.05;;
69034;SDS011;56091;55.756;37.412;2023-06-22T09:13:46;12.70;;;4.10;;
69034;SDS011;56091;55.756;37.412;2023-06-22T09:18:47;8.90;;;4.30;;
69034;SDS011;56091;55.756;37.412;2023-06-22T09:23:49;9.33;;;4.30;;
69034;SDS011;56091;55.756;37.412;2023-06-22T09:28:51;9.10;;;4.30;;
69034;SDS011;56091;55.756;37.412;2023-06-22T09:33:53;9.10;;;4.40;;
69034;SDS011;56091;55.756;37.412;2023-06-22T09:38:54;8.48;;;4.18;;
69034;SDS011;56091;55.756;37.412;2023-06-22T09:44:04;8.43;;;4.00;;
69034;SDS011;56091;55.756;37.412;2023-06-22T09:49:05;8.55;;;4.30;;
69034;SDS011;56091;55.756;37.412;2023-06-22T09:54:06;11.90;;;5.37;;
69034;SDS011;56091;55.756;37.412;2023-06-22T09:59:07;9.48;;;4.65;;
69034;SDS011;56091;55.756;37.412;2023-06-22T10:04:08;8.93;;;4.20;;
69034;SDS011;56091;55.756;37.412;2023-06-22T10:09:09;10.20;;;4.43;;
69034;SDS011;56091;55.756;37.412;2023-06-22T10:14:12;12.27;;;4.50;;
69034;SDS011;56091;55.756;37.412;2023-06-22T10:19:12;11.20;;;4.10;;
69034;SDS011;56091;55.756;37.412;2023-06-22T10:24:16;8.25;;;4.20;;
69034;SDS011;56091;55.756;37.412;2023-06-22T10:29:17;9.57;;;4.47;;
69034;SDS011;56091;55.756;37.412;2023-06-22T10:34:18;8.00;;;4.25;;
69034;SDS011;56091;55.756;37.412;2023-06-22T10:39:21;9.47;;;4.53;;
69034;SDS011;56091;55.756;37.412;2023-06-22T10:44:22;10.27;;;4.90;;
69034;SDS011;56091;55.756;37.412;2023-06-22T10:49:22;9.43;;;3.90;;
69034;SDS011;56091;55.756;37.412;2023-06-22T10:54:23;8.57;;;4.30;;
69034;SDS011;56091;55.756;37.412;2023-06-22T10:59:24;12.77;;;4.63;;
69034;SDS011;56091;55.756;37.412;2023-06-22T11:04:26;7.60;;;4.30;;
69034;SDS011;56091;55.756;37.412;2023-06-22T11:09:27;13.18;;;4.68;;
69034;SDS011;56091;55.756;37.412;2023-06-22T11:14:28;7.73;;;4.50;;
69034;SDS011;56091;55.756;37.412;2023-06-22T11:19:28;9.50;;;4.60;;
69034;SDS011;56091;55.756;37.412;2023-06-22T11:24:29;8.37;;;4.87;;
69034;SDS011;56091;55.756;37.412;2023-06-22T11:29:30;9.00;;;4.85;;
69034;SDS011;56091;55.756;37.412;2023-06-22T11:34:36;7.70;;;4.77;;
69034;SDS011;56091;55.756;37.412;2023-06-22T11:39:37;7.55;;;4.55;;
69034;SDS011;56091;55.756;37.412;2023-06-22T11:44:38;11.40;;;4.50;;
69034;SDS011;56091;55.756;37.412;2023-06-22T11:49:39;8.27;;;4.70;;
69034;SDS011;56091;55.756;37.412;2023-06-22T11:54:40;9.50;;;4.90;;
69034;SDS011;56091;55.756;37.412;2023-06-22T11:59:41;10.23;;;4.83;;
69034;SDS011;56091;55.756;37.412;2023-06-22T12:04:42;11.13;;;4.97;;
69034;SDS011;56091;55.756;37.412;2023-06-22T12:09:42;9.07;;;4.68;;
69034;SDS011;56091;55.756;37.412;2023-06-22T12:14:44;8.07;;;4.90;;
69034;SDS011;56091;55.756;37.412;2023-06-22T12:19:45;8.45;;;5.90;;
69034;SDS011;56091;55.756;37.412;2023-06-22T12:24:46;10.67;;;6.40;;
69034;SDS011;56091;55.756;37.412;2023-06-22T12:29:46;11.70;;;6.60;;
69034;SDS011;56091;55.756;37.412;2023-06-22T12:34:48;8.65;;;6.00;;
69034;SDS011;56091;55.756;37.412;2023-06-22T12:39:49;8.82;;;6.35;;
69034;SDS011;56091;55.756;37.412;2023-06-22T12:44:50;8.73;;;4.30;;
69034;SDS011;56091;55.756;37.412;2023-06-22T12:49:51;8.65;;;6.40;;
69034;SDS011;56091;55.756;37.412;2023-06-22T12:54:51;9.43;;;6.37;;
69034;SDS011;56091;55.756;37.412;2023-06-22T12:59:52;7.75;;;5.88;;
69034;SDS011;56091;55.756;37.412;2023-06-22T13:04:54;8.70;;;5.63;;
69034;SDS011;56091;55.756;37.412;2023-06-22T13:09:55;9.50;;;6.25;;
69034;SDS011;56091;55.756;37.412;2023-06-22T13:14:56;8.90;;;6.47;;
69034;SDS011;56091;55.756;37.412;2023-06-22T13:19:57;8.55;;;4.43;;
69034;SDS011;56091;55.756;37.412;2023-06-22T13:24:58;10.23;;;5.80;;
69034;SDS011;56091;55.756;37.412;2023-06-22T13:30:00;8.10;;;6.38;;
69034;SDS011;56091;55.756;37.412;2023-06-22T13:35:01;9.37;;;6.47;;
69034;SDS011;56091;55.756;37.412;2023-06-22T13:40:02;9.88;;;6.40;;
69034;SDS011;56091;55.756;37.412;2023-06-22T13:45:09;10.23;;;6.60;;
69034;SDS011;56091;55.756;37.412;2023-06-22T13:50:10;9.37;;;6.00;;
69034;SDS011;56091;55.756;37.412;2023-06-22T13:55:13;11.23;;;5.93;;
69034;SDS011;56091;55.756;37.412;2023-06-22T14:00:16;8.57;;;6.60;;
69034;SDS011;56091;55.756;37.412;2023-06-22T14:05:18;8.02;;;6.25;;
69034;SDS011;56091;55.756;37.412;2023-06-22T14:10:19;7.90;;;6.03;;
69034;SDS011;56091;55.756;37.412;2023-06-22T14:15:19;11.07;;;6.20;;
69034;SDS011;56091;55.756;37.412;2023-06-22T14:20:23;8.60;;;6.33;;
69034;SDS011;56091;55.756;37.412;2023-06-22T14:25:24;9.00;;;6.07;;
69034;SDS011;56091;55.756;37.412;2023-06-22T14:30:25;8.68;;;6.03;;
69034;SDS011;56091;55.756;37.412;2023-06-22T14:35:25;10.43;;;6.77;;
69034;SDS011;56091;55.756;37.412;2023-06-22T14:40:26;8.73;;;6.17;;
69034;SDS011;56091;55.756;37.412;2023-06-22T14:45:27;7.90;;;5.00;;
69034;SDS011;56091;55.756;37.412;2023-06-22T14:50:29;10.50;;;4.97;;
69034;SDS011;56091;55.756;37.412;2023-06-22T14:55:30;10.43;;;4.75;;
69034;SDS011;56091;55.756;37.412;2023-06-22T15:00:31;14.20;;;7.67;;
69034;SDS011;56091;55.756;37.412;2023-06-22T15:05:32;10.03;;;5.70;;
69034;SDS011;56091;55.756;37.412;2023-06-22T15:10:33;9.27;;;5.10;;
69034;SDS011;56091;55.756;37.412;2023-06-22T15:15:33;10.02;;;4.93;;
69034;SDS011;56091;55.756;37.412;2023-06-22T15:20:37;9.13;;;5.40;;
69034;SDS011;56091;55.756;37.412;2023-06-22T15:25:38;11.10;;;6.10;;
69034;SDS011;56091;55.756;37.412;2023-06-22T15:30:39;9.07;;;4.90;;
69034;SDS011;56091;55.756;37.412;2023-06-22T15:35:40;9.00;;;4.60;;
69034;SDS011;56091;55.756;37.412;2023-06-22T15:40:41;9.80;;;5.13;;
69034;SDS011;56091;55.756;37.412;2023-06-22T15:45:45;9.10;;;5.30;;
69034;SDS011;56091;55.756;37.412;2023-06-22T15:50:48;10.75;;;6.25;;
69034;SDS011;56091;55.756;37.412;2023-06-22T15:55:51;15.73;;;4.63;;
69034;SDS011;56091;55.756;37.412;2023-06-22T16:00:55;9.63;;;5.00;;
69034;SDS011;56091;55.756;37.412;2023-06-22T16:05:56;9.97;;;4.73;;
69034;SDS011;56091;55.756;37.412;2023-06-22T16:10:57;11.48;;;4.85;;
69034;SDS011;56091;55.756;37.412;2023-06-22T16:16:01;8.97;;;5.03;;
69034;SDS011;56091;55.756;37.412;2023-06-22T16:21:02;8.63;;;5.10;;
69034;SDS011;56091;55.756;37.412;2023-06-22T16:26:04;8.30;;;5.13;;
69034;SDS011;56091;55.756;37.412;2023-06-22T16:31:05;11.27;;;6.57;;
69034;SDS011;56091;55.756;37.412;2023-06-22T16:36:06;9.82;;;5.95;;
69034;SDS011;56091;55.756;37.412;2023-06-22T16:41:10;11.00;;;5.17;;
69034;SDS011;56091;55.756;37.412;2023-06-22T16:46:10;17.17;;;5.30;;
69034;SDS011;56091;55.756;37.412;2023-06-22T16:51:11;14.37;;;5.17;;
69034;SDS011;56091;55.756;37.412;2023-06-22T16:56:15;16.38;;;5.53;;
69034;SDS011;56091;55.756;37.412;2023-06-22T17:01:16;18.37;;;5.57;;
69034;SDS011;56091;55.756;37.412;2023-06-22T17:06:17;11.02;;;5.20;;
69034;SDS011;56091;55.756;37.412;2023-06-22T17:11:18;15.90;;;5.07;;
69034;SDS011;56091;55.756;37.412;2023-06-22T17:16:20;20.60;;;5.20;;
69034;SDS011;56091;55.756;37.412;2023-06-22T17:21:24;10.90;;;4.70;;
69034;SDS011;56091;55.756;37.412;2023-06-22T17:26:26;13.60;;;5.13;;
69034;SDS011;56091;55.756;37.412;2023-06-22T17:31:42;16.47;;;4.67;;
69034;SDS011;56091;55.756;37.412;2023-06-22T17:36:50;12.75;;;5.22;;
69034;SDS011;56091;55.756;37.412;2023-06-22T17:41:53;19.43;;;5.10;;
69034;SDS011;56091;55.756;37.412;2023-06-22T17:46:57;15.43;;;4.85;;
69034;SDS011;56091;55.756;37.412;2023-06-22T17:52:00;17.20;;;4.73;;
69034;SDS011;56091;55.756;37.412;2023-06-22T17:57:01;11.90;;;4.40;;
69034;SDS011;56091;55.756;37.412;2023-06-22T18:02:05;9.30;;;4.27;;
69034;SDS011;56091;55.756;37.412;2023-06-22T18:07:08;13.00;;;4.55;;
69034;SDS011;56091;55.756;37.412;2023-06-22T18:12:10;12.20;;;4.40;;
69034;SDS011;56091;55.756;37.412;2023-06-22T18:17:11;12.38;;;4.32;;
69034;SDS011;56091;55.756;37.412;2023-06-22T18:22:13;11.07;;;4.27;;
69034;SDS011;56091;55.756;37.412;2023-06-22T18:27:15;12.35;;;4.05;;
69034;SDS011;56091;55.756;37.412;2023-06-22T18:32:16;15.87;;;4.27;;
69034;SDS011;56091;55.756;37.412;2023-06-22T18:37:17;10.00;;;4.60;;
69034;SDS011;56091;55.756;37.412;2023-06-22T18:42:20;12.43;;;4.47;;
69034;SDS011;56091;55.756;37.412;2023-06-22T18:47:25;12.03;;;4.53;;
69034;SDS011;56091;55.756;37.412;2023-06-22T18:52:28;13.57;;;4.50;;
69034;SDS011;56091;55.756;37.412;2023-06-22T18:57:32;14.23;;;4.23;;
69034;SDS011;56091;55.756;37.412;2023-06-22T19:12:54;14.57;;;4.32;;
69034;SDS011;56091;55.756;37.412;2023-06-22T19:17:59;8.77;;;3.77;;
69034;SDS011;56091;55.756;37.412;2023-06-22T19:23:01;9.38;;;3.70;;
69034;SDS011;56091;55.756;37.412;2023-06-22T19:28:10;12.60;;;4.40;;
69034;SDS011;56091;55.756;37.412;2023-06-22T19:33:11;12.82;;;4.05;;
69034;SDS011;56091;55.756;37.412;2023-06-22T19:38:14;8.30;;;3.87;;
69034;SDS011;56091;55.756;37.412;2023-06-22T19:43:17;11.98;;;3.65;;
69034;SDS011;56091;55.756;37.412;2023-06-22T19:48:17;10.30;;;3.60;;
69034;SDS011;56091;55.756;37.412;2023-06-22T19:53:18;9.85;;;4.18;;
69034;SDS011;56091;55.756;37.412;2023-06-22T19:58:20;9.93;;;3.30;;
69034;SDS011;56091;55.756;37.412;2023-06-22T20:03:25;11.00;;;4.00;;
69034;SDS011;56091;55.756;37.412;2023-06-22T20:08:30;9.13;;;3.67;;
69034;SDS011;56091;55.756;37.412;2023-06-22T20:13:49;9.55;;;3.85;;
69034;SDS011;56091;55.756;37.412;2023-06-22T20:24:14;13.40;;;3.92;;
69034;SDS011;56091;55.756;37.412;2023-06-22T20:29:24;8.40;;;3.53;;
69034;SDS011;56091;55.756;37.412;2023-06-22T20:34:26;7.40;;;3.60;;
69034;SDS011;56091;55.756;37.412;2023-06-22T20:39:27;12.27;;;3.70;;
69034;SDS011;56091;55.756;37.412;2023-06-22T20:44:28;13.90;;;4.13;;
69034;SDS011;56091;55.756;37.412;2023-06-22T20:49:28;8.93;;;4.20;;
69034;SDS011;56091;55.756;37.412;2023-06-22T20:54:33;9.80;;;3.63;;
69034;SDS011;56091;55.756;37.412;2023-06-22T20:59:34;10.83;;;3.70;;
69034;SDS011;56091;55.756;37.412;2023-06-22T21:04:37;10.85;;;3.80;;
69034;SDS011;56091;55.756;37.412;2023-06-22T21:09:41;10.80;;;3.80;;
69034;SDS011;56091;55.756;37.412;2023-06-22T21:14:43;12.43;;;3.97;;
69034;SDS011;56091;55.756;37.412;2023-06-22T21:19:44;12.15;;;4.07;;
69034;SDS011;56091;55.756;37.412;2023-06-22T21:25:02;9.03;;;3.90;;
69034;SDS011;56091;55.756;37.412;2023-06-22T21:30:06;11.57;;;3.90;;
69034;SDS011;56091;55.756;37.412;2023-06-22T21:35:09;9.20;;;3.80;;
69034;SDS011;56091;55.756;37.412;2023-06-22T21:40:11;13.25;;;3.88;;
69034;SDS011;56091;55.756;37.412;2023-06-22T21:45:15;11.07;;;4.00;;
69034;SDS011;56091;55.756;37.412;2023-06-22T21:50:16;15.57;;;4.40;;
69034;SDS011;56091;55.756;37.412;2023-06-22T21:55:17;9.63;;;4.30;;
69034;SDS011;56091;55.756;37.412;2023-06-22T22:00:21;10.43;;;4.30;;
69034;SDS011;56091;55.756;37.412;2023-06-22T22:05:22;11.67;;;4.77;;
69034;SDS011;56091;55.756;37.412;2023-06-22T22:10:23;14.40;;;4.80;;
69034;SDS011;56091;55.756;37.412;2023-06-22T22:15:24;15.87;;;5.50;;
69034;SDS011;56091;55.756;37.412;2023-06-22T22:20:25;19.55;;;5.30;;
69034;SDS011;56091;55.756;37.412;2023-06-22T22:25:26;16.40;;;6.00;;
69034;SDS011;56091;55.756;37.412;2023-06-22T22:30:27;18.50;;;6.63;;
69034;SDS011;56091;55.756;37.412;2023-06-22T22:35:28;20.57;;;6.90;;
69034;SDS011;56091;55.756;37.412;2023-06-22T22:40:29;22.33;;;8.30;;
69034;SDS011;56091;55.756;37.412;2023-06-22T22:45:30;35.93;;;9.87;;
69034;SDS011;56091;55.756;37.412;2023-06-22T22:50:31;29.50;;;9.98;;
69034;SDS011;56091;55.756;37.412;2023-06-22T22:55:32;31.53;;;9.90;;
69034;SDS011;56091;55.756;37.412;2023-06-22T23:00:32;32.53;;;9.93;;
69034;SDS011;56091;55.756;37.412;2023-06-22T23:05:33;29.37;;;9.27;;
69034;SDS011;56091;55.756;37.412;2023-06-22T23:10:34;30.92;;;9.48;;
69034;SDS011;56091;55.756;37.412;2023-06-22T23:15:38;28.47;;;10.30;;
69034;SDS011;56091;55.756;37.412;2023-06-22T23:20:39;28.10;;;9.88;;
69034;SDS011;56091;55.756;37.412;2023-06-22T23:25:41;25.77;;;9.60;;
69034;SDS011;56091;55.756;37.412;2023-06-22T23:30:42;29.77;;;9.30;;
69034;SDS011;56091;55.756;37.412;2023-06-22T23:35:43;25.02;;;8.32;;
69034;SDS011;56091;55.756;37.412;2023-06-22T23:40:44;19.97;;;6.70;;
69034;SDS011;56091;55.756;37.412;2023-06-22T23:45:46;15.57;;;4.80;;
69034;SDS011;56091;55.756;37.412;2023-06-22T23:50:46;9.70;;;4.13;;
69034;SDS011;56091;55.756;37.412;2023-06-22T23:55:48;12.82;;;4.00;;
